Time;durP1;ratioP1;P1;durP2;ratioP2;P2;SDS_P1;SDS_P2;PMS_P1;PMS_P2;Temp;Humidity;BMP_temperature;BMP_pressure;BME280_temperature;BME280_humidity;BME280_pressure;Samples;Min_cycle;Max_cycle;Signal;HPM_P1;HPM_P2
2021/06/19 00:00:38;;;;;;;12.50;5.17;;;24.00;99.90;;;;;;5069677;28;20453;-68
2021/06/19 00:03:05;;;;;;;14.33;4.77;;;24.10;99.30;;;;;;5070385;28;20473;-68
2021/06/19 00:05:32;;;;;;;11.90;5.17;;;24.20;99.20;;;;;;5071123;28;20453;-69
2021/06/19 00:08:02;;;;;;;10.63;4.27;;;24.20;99.10;;;;;;5069747;28;20562;-68
2021/06/19 00:10:29;;;;;;;9.50;3.80;;;24.20;98.20;;;;;;5070428;28;20928;-68
2021/06/19 00:12:56;;;;;;;10.10;4.37;;;24.20;97.00;;;;;;5069685;28;20455;-68
2021/06/19 00:15:24;;;;;;;10.97;3.80;;;24.30;97.00;;;;;;5071788;28;20470;-68
2021/06/19 00:17:51;;;;;;;15.63;4.40;;;24.30;96.00;;;;;;5071876;28;20506;-69
2021/06/19 00:20:19;;;;;;;11.30;3.30;;;24.20;96.80;;;;;;5071906;28;20441;-68
2021/06/19 00:22:47;;;;;;;10.30;3.70;;;24.10;98.20;;;;;;5072144;28;20467;-68
2021/06/19 00:25:17;;;;;;;9.77;3.67;;;24.00;98.30;;;;;;5071937;28;20437;-68
2021/06/19 00:27:45;;;;;;;11.43;4.37;;;23.90;99.10;;;;;;5071513;28;20514;-68
2021/06/19 00:30:13;;;;;;;9.13;4.20;;;23.90;99.20;;;;;;5070965;28;20435;-68
2021/06/19 00:32:41;;;;;;;12.53;5.27;;;23.80;99.70;;;;;;5072298;28;21062;-68
2021/06/19 00:35:09;;;;;;;12.00;5.10;;;23.90;99.00;;;;;;5071693;28;20577;-68
2021/06/19 00:37:37;;;;;;;14.30;5.23;;;24.20;98.70;;;;;;5071450;28;20442;-68
2021/06/19 00:40:06;;;;;;;8.20;5.77;;;24.40;99.90;;;;;;5070906;28;20439;-68
2021/06/19 00:42:34;;;;;;;14.77;5.37;;;24.30;99.90;;;;;;5071677;28;20474;-69
2021/06/19 00:45:02;;;;;;;9.83;5.10;;;24.20;99.90;;;;;;5072202;28;20523;-68
2021/06/19 00:47:28;;;;;;;10.93;5.47;;;24.20;99.90;;;;;;5071319;28;20460;-68
2021/06/19 00:49:55;;;;;;;15.93;5.20;;;24.10;99.90;;;;;;5071289;28;20449;-68
2021/06/19 00:52:23;;;;;;;10.43;6.07;;;24.10;99.90;;;;;;5071813;28;20445;-69
2021/06/19 00:54:50;;;;;;;15.47;6.63;;;24.00;99.90;;;;;;5073131;28;20596;-70
2021/06/19 00:57:17;;;;;;;12.83;6.60;;;24.00;99.90;;;;;;5070919;28;20925;-70
2021/06/19 00:59:46;;;;;;;14.73;5.90;;;24.10;99.90;;;;;;5070814;28;20474;-68
2021/06/19 01:02:13;;;;;;;12.47;6.13;;;24.30;99.90;;;;;;5071403;28;20443;-68
2021/06/19 01:04:40;;;;;;;15.53;6.20;;;24.40;99.90;;;;;;5071141;28;20436;-69
2021/06/19 01:07:07;;;;;;;15.30;7.07;;;24.40;99.90;;;;;;5070822;28;20482;-69
2021/06/19 01:09:34;;;;;;;12.80;6.90;;;24.30;99.90;;;;;;5070187;28;20471;-69
2021/06/19 01:12:02;;;;;;;12.50;6.40;;;24.20;99.90;;;;;;5071124;28;20530;-69
2021/06/19 01:14:29;;;;;;;13.80;6.47;;;24.10;99.90;;;;;;5071293;28;20518;-69
2021/06/19 01:16:57;;;;;;;13.73;6.37;;;24.00;99.90;;;;;;5071516;28;20516;-70
2021/06/19 01:19:24;;;;;;;11.63;5.80;;;24.00;99.90;;;;;;5070182;28;20449;-70
2021/06/19 01:21:53;;;;;;;12.87;7.07;;;24.00;99.90;;;;;;5070747;28;20825;-69
2021/06/19 01:24:22;;;;;;;13.23;6.40;;;23.90;99.90;;;;;;5070805;28;20451;-70
2021/06/19 01:26:51;;;;;;;13.03;6.37;;;23.90;99.90;;;;;;5070713;28;20569;-69
2021/06/19 01:29:18;;;;;;;12.10;5.80;;;23.70;99.90;;;;;;5070495;28;20447;-69
2021/06/19 01:31:45;;;;;;;12.77;6.00;;;23.50;99.90;;;;;;5070867;28;20435;-69
2021/06/19 01:34:12;;;;;;;17.37;7.30;;;23.30;99.90;;;;;;5070693;28;20460;-70
2021/06/19 01:36:39;;;;;;;12.67;6.67;;;23.00;99.90;;;;;;5070049;28;20502;-69
2021/06/19 01:39:06;;;;;;;14.53;5.93;;;22.70;99.90;;;;;;5070138;28;20805;-68
2021/06/19 01:41:33;;;;;;;12.20;7.10;;;22.50;99.90;;;;;;5071145;28;20538;-69
2021/06/19 01:44:04;;;;;;;17.50;6.43;;;22.30;99.90;;;;;;5070435;28;20462;-69
2021/06/19 01:46:32;;;;;;;16.53;7.00;;;22.30;99.90;;;;;;5070856;28;20416;-70
2021/06/19 01:48:59;;;;;;;13.10;7.00;;;22.10;99.90;;;;;;5069777;28;20521;-70
2021/06/19 01:51:27;;;;;;;11.10;7.20;;;21.90;99.90;;;;;;5070689;28;20474;-68
2021/06/19 01:53:54;;;;;;;11.30;6.90;;;21.80;99.90;;;;;;5070837;28;20672;-69
2021/06/19 01:56:23;;;;;;;15.50;6.57;;;21.80;99.90;;;;;;5070595;28;20562;-69
2021/06/19 01:58:50;;;;;;;14.47;7.60;;;21.70;99.90;;;;;;5072303;28;20465;-69
2021/06/19 02:01:19;;;;;;;15.97;7.47;;;21.50;99.90;;;;;;5071657;28;20987;-69
2021/06/19 02:03:47;;;;;;;13.00;6.80;;;21.40;99.90;;;;;;5071385;28;20474;-68
2021/06/19 02:06:14;;;;;;;14.60;6.97;;;21.40;99.90;;;;;;5069516;28;20446;-69
2021/06/19 02:08:42;;;;;;;17.10;8.30;;;21.40;99.90;;;;;;5069924;28;20526;-70
2021/06/19 02:11:10;;;;;;;11.70;7.13;;;21.40;99.90;;;;;;5069142;28;20445;-69
2021/06/19 02:13:37;;;;;;;12.60;6.70;;;21.30;99.90;;;;;;5069789;28;20554;-69
2021/06/19 02:16:05;;;;;;;13.20;7.63;;;21.30;99.90;;;;;;5069173;28;20498;-70
2021/06/19 02:18:33;;;;;;;15.57;7.20;;;21.30;99.90;;;;;;5069693;28;20916;-69
2021/06/19 02:21:00;;;;;;;11.40;7.87;;;21.30;99.90;;;;;;5069561;28;20439;-69
2021/06/19 02:23:28;;;;;;;15.20;7.50;;;21.30;99.90;;;;;;5069513;28;20471;-69
2021/06/19 02:25:55;;;;;;;12.70;7.80;;;21.10;99.90;;;;;;5069999;28;20435;-71
2021/06/19 02:28:24;;;;;;;18.07;9.03;;;21.10;99.90;;;;;;5069922;28;20474;-70
2021/06/19 02:30:53;;;;;;;13.67;7.23;;;21.00;99.90;;;;;;5068730;28;20500;-70
2021/06/19 02:33:21;;;;;;;12.10;7.60;;;20.90;99.90;;;;;;5070085;28;20543;-69
2021/06/19 02:35:50;;;;;;;15.83;9.20;;;20.90;99.90;;;;;;5071270;28;20507;-70
2021/06/19 02:38:18;;;;;;;14.90;8.67;;;20.80;99.90;;;;;;5070198;28;20866;-69
2021/06/19 02:40:47;;;;;;;16.67;8.73;;;20.80;99.90;;;;;;5069573;28;20679;-69
2021/06/19 02:43:15;;;;;;;13.57;8.30;;;20.70;99.90;;;;;;5069421;28;21166;-69
2021/06/19 02:45:42;;;;;;;14.83;9.47;;;20.70;99.90;;;;;;5070229;28;20523;-69
2021/06/19 02:48:10;;;;;;;13.27;8.37;;;20.70;99.90;;;;;;5069460;28;20439;-69
2021/06/19 02:50:39;;;;;;;10.90;7.77;;;20.60;99.90;;;;;;5068661;28;20909;-69
2021/06/19 02:53:08;;;;;;;12.43;8.03;;;20.50;99.90;;;;;;5069403;28;21140;-68
2021/06/19 02:55:37;;;;;;;12.10;7.67;;;20.40;99.90;;;;;;5051793;28;20482;-69
2021/06/19 02:58:05;;;;;;;17.37;9.13;;;20.40;99.90;;;;;;5068941;28;21020;-69
2021/06/19 03:00:33;;;;;;;14.57;9.37;;;20.30;99.90;;;;;;5069069;28;20445;-69
2021/06/19 03:03:01;;;;;;;12.57;7.40;;;20.30;99.90;;;;;;5069205;28;20466;-69
2021/06/19 03:05:29;;;;;;;12.53;8.03;;;20.20;99.90;;;;;;5069855;28;20443;-69
2021/06/19 03:07:56;;;;;;;12.40;8.83;;;20.10;99.90;;;;;;5069104;28;20443;-68
2021/06/19 03:10:26;;;;;;;20.13;8.67;;;20.20;99.90;;;;;;5068784;28;20896;-70
2021/06/19 03:12:53;;;;;;;18.10;9.73;;;20.10;99.90;;;;;;5069756;28;20467;-70
2021/06/19 03:15:21;;;;;;;14.30;8.37;;;20.00;99.90;;;;;;5069550;28;20884;-70
2021/06/19 03:17:48;;;;;;;14.83;8.60;;;20.00;99.90;;;;;;5069709;28;20538;-69
2021/06/19 03:20:16;;;;;;;13.93;10.00;;;20.00;99.90;;;;;;5069978;28;20434;-68
2021/06/19 03:22:45;;;;;;;10.33;8.73;;;20.00;99.90;;;;;;5073207;28;20467;-70
2021/06/19 03:25:15;;;;;;;14.57;8.70;;;20.00;99.90;;;;;;5073572;28;20530;-69
2021/06/19 03:27:44;;;;;;;13.87;8.50;;;20.00;99.90;;;;;;5073192;28;20424;-68
2021/06/19 03:30:12;;;;;;;18.10;8.10;;;20.10;99.90;;;;;;5072745;28;20508;-69
2021/06/19 03:32:40;;;;;;;11.60;8.00;;;20.10;99.90;;;;;;5073397;28;20514;-70
2021/06/19 03:35:08;;;;;;;12.93;8.87;;;20.10;99.90;;;;;;5073508;28;20435;-68
2021/06/19 03:37:36;;;;;;;12.53;8.40;;;20.10;99.90;;;;;;5072753;28;20431;-68
2021/06/19 03:40:04;;;;;;;17.40;8.67;;;20.20;99.90;;;;;;5072548;28;20999;-69
2021/06/19 03:42:31;;;;;;;15.33;9.00;;;20.10;99.90;;;;;;5072867;28;20561;-69
2021/06/19 03:44:59;;;;;;;16.43;9.17;;;20.10;99.90;;;;;;5072942;28;20521;-70
2021/06/19 03:47:26;;;;;;;13.87;8.90;;;20.10;99.90;;;;;;5072674;28;20537;-70
2021/06/19 03:49:53;;;;;;;12.07;9.30;;;20.00;99.90;;;;;;5072375;28;20863;-69
2021/06/19 03:52:20;;;;;;;15.00;8.93;;;20.00;99.90;;;;;;5073078;28;20446;-71
2021/06/19 03:54:48;;;;;;;16.63;8.70;;;19.90;99.90;;;;;;5073641;28;20445;-70
2021/06/19 03:57:23;;;;;;;10.90;8.37;;;19.90;99.90;;;;;;5072274;28;20479;-69
2021/06/19 03:59:50;;;;;;;13.57;8.90;;;19.90;99.90;;;;;;5071825;28;20945;-69
2021/06/19 04:02:19;;;;;;;12.93;8.40;;;19.90;99.90;;;;;;5072320;28;20530;-69
2021/06/19 04:04:46;;;;;;;13.07;8.87;;;20.00;99.90;;;;;;5072609;28;20439;-68
2021/06/19 04:07:13;;;;;;;14.50;8.50;;;20.10;99.90;;;;;;5072230;28;20947;-69
2021/06/19 04:09:40;;;;;;;13.47;9.30;;;20.20;99.90;;;;;;5071646;28;20940;-68
2021/06/19 04:12:08;;;;;;;12.10;10.17;;;20.50;99.90;;;;;;5072386;28;20447;-68
2021/06/19 04:14:35;;;;;;;14.50;8.90;;;20.60;99.90;;;;;;5072547;28;20438;-68
2021/06/19 04:17:01;;;;;;;15.37;9.07;;;20.70;99.90;;;;;;5071610;28;20477;-69
2021/06/19 04:19:30;;;;;;;15.70;8.80;;;20.80;99.90;;;;;;5070657;28;20443;-69
2021/06/19 04:21:57;;;;;;;14.53;9.07;;;21.00;99.90;;;;;;5072527;28;20546;-70
2021/06/19 04:24:24;;;;;;;13.83;8.33;;;21.00;99.90;;;;;;5072142;28;20503;-70
2021/06/19 04:26:50;;;;;;;10.63;9.23;;;21.10;99.90;;;;;;5071670;28;20799;-71
2021/06/19 04:29:17;;;;;;;15.37;9.37;;;21.10;99.90;;;;;;5071327;28;20443;-69
2021/06/19 04:31:44;;;;;;;11.93;7.93;;;21.20;99.90;;;;;;5071128;28;20435;-67
2021/06/19 04:34:11;;;;;;;12.20;8.40;;;21.10;99.90;;;;;;5072173;28;20818;-69
2021/06/19 04:36:39;;;;;;;13.67;8.97;;;21.10;99.90;;;;;;5071968;28;20562;-68
2021/06/19 04:39:06;;;;;;;14.10;9.07;;;21.00;99.90;;;;;;5071325;28;20652;-68
2021/06/19 04:41:34;;;;;;;11.83;8.87;;;21.00;99.90;;;;;;5072238;28;20443;-68
2021/06/19 04:44:19;;;;;;;13.93;8.87;;;20.90;99.90;;;;;;5071551;28;20551;-69
2021/06/19 04:46:46;;;;;;;14.97;9.13;;;20.90;99.90;;;;;;5073570;28;20501;-68
2021/06/19 04:49:14;;;;;;;11.47;8.33;;;20.90;99.90;;;;;;5071266;28;20443;-69
2021/06/19 04:51:42;;;;;;;11.70;8.90;;;21.00;99.90;;;;;;5071779;28;20457;-69
2021/06/19 04:54:09;;;;;;;15.20;8.27;;;21.10;99.90;;;;;;5071554;28;20546;-69
2021/06/19 04:56:38;;;;;;;16.47;9.63;;;21.20;99.90;;;;;;5071440;28;20570;-69
2021/06/19 04:59:05;;;;;;;11.90;8.67;;;21.40;99.90;;;;;;5071405;28;20526;-68
2021/06/19 05:01:32;;;;;;;12.40;9.33;;;21.50;99.90;;;;;;5071065;28;20454;-69
2021/06/19 05:04:01;;;;;;;15.33;9.37;;;21.50;99.90;;;;;;5071772;28;20455;-68
2021/06/19 05:06:28;;;;;;;13.33;9.77;;;21.60;99.90;;;;;;5071354;28;20443;-70
2021/06/19 05:08:56;;;;;;;12.70;8.93;;;21.70;99.90;;;;;;5072152;28;20449;-68
2021/06/19 05:11:23;;;;;;;12.83;9.40;;;21.70;99.90;;;;;;5070977;28;20952;-67
2021/06/19 05:13:50;;;;;;;15.13;9.67;;;21.70;99.90;;;;;;5070956;28;20542;-69
2021/06/19 05:16:17;;;;;;;11.00;9.27;;;21.70;99.90;;;;;;5070621;28;21015;-68
2021/06/19 05:18:44;;;;;;;15.53;8.30;;;21.70;99.90;;;;;;5071224;28;20443;-69
2021/06/19 05:21:11;;;;;;;12.17;8.80;;;21.80;99.90;;;;;;5070024;28;20925;-69
2021/06/19 05:23:37;;;;;;;13.83;8.50;;;21.80;99.90;;;;;;5070861;28;20491;-68
2021/06/19 05:26:06;;;;;;;13.67;9.60;;;21.80;99.90;;;;;;5071019;28;20490;-68
2021/06/19 05:28:33;;;;;;;17.90;10.13;;;21.90;99.90;;;;;;5070884;28;20537;-67
2021/06/19 05:31:02;;;;;;;12.60;9.70;;;21.90;99.90;;;;;;5070009;28;20924;-66
2021/06/19 05:33:29;;;;;;;12.63;9.17;;;22.00;99.90;;;;;;5070506;28;20463;-67
2021/06/19 05:35:55;;;;;;;15.43;9.23;;;22.00;99.90;;;;;;5070362;28;20470;-66
2021/06/19 05:38:23;;;;;;;11.30;8.53;;;22.10;99.90;;;;;;5070432;28;20524;-66
2021/06/19 05:40:50;;;;;;;14.33;8.70;;;22.30;99.90;;;;;;5070010;28;20457;-69
2021/06/19 05:43:18;;;;;;;14.60;9.13;;;22.40;99.90;;;;;;5069728;28;20506;-67
2021/06/19 05:45:45;;;;;;;14.77;8.50;;;22.50;99.90;;;;;;5070559;28;20435;-67
2021/06/19 05:48:12;;;;;;;15.70;9.10;;;22.60;99.90;;;;;;5070089;28;20534;-68
2021/06/19 05:50:39;;;;;;;15.53;9.03;;;22.70;99.90;;;;;;5069772;28;20580;-68
2021/06/19 05:53:06;;;;;;;14.87;7.90;;;22.80;99.90;;;;;;5070393;28;20469;-68
2021/06/19 05:55:33;;;;;;;12.50;9.03;;;22.80;99.90;;;;;;5070189;28;20972;-68
2021/06/19 05:58:00;;;;;;;16.57;10.40;;;22.80;99.90;;;;;;5069918;28;20566;-68
2021/06/19 06:00:28;;;;;;;15.13;9.57;;;22.90;99.90;;;;;;5068862;28;20431;-68
2021/06/19 06:02:55;;;;;;;10.70;8.17;;;22.90;99.90;;;;;;5070457;28;20495;-68
2021/06/19 06:05:22;;;;;;;13.57;8.00;;;23.00;99.90;;;;;;5070129;28;20814;-68
2021/06/19 06:07:49;;;;;;;14.63;8.80;;;23.10;99.90;;;;;;5069831;28;20443;-68
2021/06/19 06:10:16;;;;;;;17.83;10.27;;;23.10;99.90;;;;;;5069252;28;20522;-67
2021/06/19 06:12:43;;;;;;;14.90;9.90;;;23.30;99.90;;;;;;5069907;28;20554;-67
2021/06/19 06:15:11;;;;;;;13.60;9.47;;;23.30;99.90;;;;;;5069457;28;20492;-67
2021/06/19 06:17:39;;;;;;;13.43;9.43;;;23.40;99.90;;;;;;5069357;28;20482;-67
2021/06/19 06:20:08;;;;;;;14.40;9.53;;;23.50;99.90;;;;;;5069323;28;20473;-67
2021/06/19 06:22:35;;;;;;;12.50;9.20;;;23.50;99.90;;;;;;5070218;28;20459;-68
2021/06/19 06:25:02;;;;;;;12.20;10.00;;;23.60;99.90;;;;;;5052139;28;20474;-68
2021/06/19 06:27:29;;;;;;;12.17;10.10;;;23.60;99.90;;;;;;5069490;28;20449;-68
2021/06/19 06:29:56;;;;;;;11.93;8.70;;;23.70;99.90;;;;;;5069092;28;20526;-67
2021/06/19 06:32:22;;;;;;;11.93;9.40;;;23.90;99.90;;;;;;5069191;28;20953;-67
2021/06/19 06:34:51;;;;;;;14.23;9.43;;;24.00;99.90;;;;;;5070037;28;20912;-68
2021/06/19 06:37:17;;;;;;;11.03;8.90;;;24.20;99.90;;;;;;5069367;28;20490;-68
2021/06/19 06:39:44;;;;;;;12.10;8.60;;;24.20;99.90;;;;;;5068949;28;20794;-68
2021/06/19 06:42:12;;;;;;;13.73;9.13;;;24.40;99.90;;;;;;5069449;28;20450;-67
2021/06/19 06:44:40;;;;;;;12.03;9.23;;;24.50;99.90;;;;;;5069901;28;20436;-68
2021/06/19 06:47:08;;;;;;;10.20;8.43;;;24.60;99.90;;;;;;5070236;28;20450;-68
2021/06/19 06:49:34;;;;;;;12.87;9.97;;;24.60;99.90;;;;;;5070349;28;20806;-66
2021/06/19 06:52:03;;;;;;;15.57;9.10;;;24.70;99.90;;;;;;5070781;28;20475;-68
2021/06/19 06:54:38;;;;;;;10.60;9.00;;;24.70;99.90;;;;;;5068425;28;20558;-68
2021/06/19 06:57:06;;;;;;;17.20;10.13;;;24.80;99.90;;;;;;5063553;28;20462;-69
2021/06/19 06:59:33;;;;;;;17.47;9.13;;;24.90;99.90;;;;;;5074037;28;20455;-68
2021/06/19 07:02:00;;;;;;;14.67;9.00;;;24.90;99.90;;;;;;5074945;28;20454;-67
2021/06/19 07:04:26;;;;;;;12.37;8.80;;;25.00;99.90;;;;;;5060231;28;20467;-67
2021/06/19 07:06:54;;;;;;;12.17;9.47;;;25.00;99.90;;;;;;5061368;28;20530;-67
2021/06/19 07:09:22;;;;;;;8.87;7.90;;;25.20;99.90;;;;;;5065748;28;20542;-67
2021/06/19 07:11:49;;;;;;;11.90;8.63;;;25.30;99.90;;;;;;5069284;28;20466;-69
2021/06/19 07:14:17;;;;;;;9.43;8.40;;;25.40;99.90;;;;;;5069682;28;20898;-67
2021/06/19 07:16:43;;;;;;;9.97;8.40;;;25.50;99.90;;;;;;5068712;28;20569;-67
2021/06/19 07:19:10;;;;;;;11.73;7.97;;;25.60;99.90;;;;;;5069039;28;20457;-67
2021/06/19 07:21:37;;;;;;;9.13;8.00;;;25.70;99.90;;;;;;5069210;28;20536;-68
2021/06/19 07:24:05;;;;;;;13.03;8.93;;;25.70;99.90;;;;;;5069444;28;20464;-68
2021/06/19 07:26:33;;;;;;;12.50;8.57;;;25.80;99.90;;;;;;5068395;28;20455;-69
2021/06/19 07:29:00;;;;;;;10.00;8.77;;;25.90;99.90;;;;;;5068605;28;20455;-68
2021/06/19 07:31:27;;;;;;;9.53;8.00;;;25.90;99.90;;;;;;5068943;28;20533;-68
2021/06/19 07:33:54;;;;;;;12.73;8.17;;;26.10;99.90;;;;;;5068403;28;21189;-69
2021/06/19 07:36:21;;;;;;;12.60;8.70;;;26.20;99.90;;;;;;5068096;28;20534;-68
2021/06/19 07:38:47;;;;;;;19.60;8.80;;;26.40;99.90;;;;;;5063718;28;20534;-68
2021/06/19 07:41:14;;;;;;;11.30;8.57;;;26.40;99.90;;;;;;5068056;28;20538;-70
2021/06/19 07:43:43;;;;;;;9.53;7.30;;;26.50;99.90;;;;;;5066398;28;20557;-69
2021/06/19 07:46:10;;;;;;;10.37;7.03;;;26.60;99.90;;;;;;5068516;28;20880;-71
2021/06/19 07:48:37;;;;;;;13.40;8.67;;;26.60;99.90;;;;;;5063539;28;20445;-69
2021/06/19 07:51:04;;;;;;;13.13;7.30;;;26.70;99.90;;;;;;5068234;28;20469;-69
2021/06/19 07:53:31;;;;;;;11.10;8.47;;;26.70;99.90;;;;;;5068461;28;20471;-69
2021/06/19 07:55:58;;;;;;;14.63;8.00;;;26.80;99.90;;;;;;5068776;28;20459;-71
2021/06/19 07:58:26;;;;;;;13.60;8.30;;;26.90;99.90;;;;;;5068872;28;20906;-70
2021/06/19 08:00:54;;;;;;;10.07;8.40;;;27.00;99.90;;;;;;5067233;28;20451;-69
2021/06/19 08:03:21;;;;;;;12.27;8.53;;;27.10;99.90;;;;;;5066181;28;20550;-69
2021/06/19 08:05:48;;;;;;;11.57;7.70;;;27.00;99.90;;;;;;5065392;28;20889;-69
2021/06/19 08:08:15;;;;;;;12.07;7.77;;;27.10;99.90;;;;;;5066982;28;20543;-68
2021/06/19 08:10:42;;;;;;;11.43;7.40;;;27.10;99.90;;;;;;5070409;28;20449;-69
2021/06/19 08:13:09;;;;;;;12.53;7.93;;;27.10;99.90;;;;;;5066720;28;20570;-67
2021/06/19 08:15:36;;;;;;;10.00;7.07;;;27.10;99.90;;;;;;5065595;28;20532;-67
2021/06/19 08:18:04;;;;;;;10.00;8.40;;;27.20;99.90;;;;;;5063647;28;21139;-68
2021/06/19 08:20:31;;;;;;;9.27;8.23;;;27.30;99.90;;;;;;5060214;28;20442;-70
2021/06/19 08:22:59;;;;;;;9.93;8.20;;;27.40;99.90;;;;;;5064110;28;20467;-71
2021/06/19 08:25:26;;;;;;;11.73;7.97;;;27.50;99.90;;;;;;5064590;28;21035;-70
2021/06/19 08:27:52;;;;;;;13.70;8.20;;;27.70;99.90;;;;;;5063217;28;20538;-70
2021/06/19 08:30:20;;;;;;;9.27;8.30;;;27.80;99.90;;;;;;5068779;28;20955;-70
2021/06/19 08:32:47;;;;;;;9.73;7.87;;;27.70;99.90;;;;;;5072463;28;20904;-70
2021/06/19 08:35:15;;;;;;;9.00;7.90;;;27.80;99.90;;;;;;5071023;28;20439;-71
2021/06/19 08:37:42;;;;;;;12.10;8.50;;;27.90;99.90;;;;;;5071106;28;21023;-70
2021/06/19 08:40:10;;;;;;;10.03;7.97;;;28.10;99.90;;;;;;5064878;28;20451;-69
2021/06/19 08:42:37;;;;;;;11.67;7.83;;;28.20;99.90;;;;;;5071538;28;20502;-70
2021/06/19 08:45:05;;;;;;;10.13;7.67;;;28.30;99.90;;;;;;5071798;28;20435;-69
2021/06/19 08:47:36;;;;;;;14.33;7.83;;;28.40;99.90;;;;;;5071230;28;20439;-70
2021/06/19 08:50:04;;;;;;;10.53;7.73;;;28.70;99.90;;;;;;5070481;28;20948;-69
2021/06/19 08:52:34;;;;;;;8.60;7.70;;;28.90;99.90;;;;;;5071693;28;20465;-67
2021/06/19 08:55:01;;;;;;;9.63;7.60;;;29.00;99.90;;;;;;5051672;28;20533;-71
2021/06/19 08:57:28;;;;;;;9.33;8.40;;;29.20;99.90;;;;;;5050794;28;20492;-68
2021/06/19 08:59:54;;;;;;;12.57;8.67;;;29.20;99.90;;;;;;5051005;28;20513;-68
2021/06/19 09:02:21;;;;;;;11.03;8.40;;;29.20;99.90;;;;;;5051320;28;20487;-68
2021/06/19 09:04:52;;;;;;;9.03;8.10;;;29.20;99.90;;;;;;5051816;28;20452;-68
2021/06/19 09:07:36;;;;;;;12.77;8.20;;;29.30;99.90;;;;;;5051145;28;20444;-68
2021/06/19 09:10:17;;;;;;;11.00;8.40;;;29.30;99.90;;;;;;5050987;28;20435;-69
2021/06/19 09:12:58;;;;;;;13.90;8.50;;;29.30;99.90;;;;;;5051533;28;20491;-67
2021/06/19 09:15:26;;;;;;;10.90;7.70;;;29.50;99.90;;;;;;5050946;28;20436;-69
2021/06/19 09:18:05;;;;;;;9.83;7.67;;;29.70;99.90;;;;;;5049923;28;20486;-70
2021/06/19 09:20:34;;;;;;;10.70;8.13;;;29.70;99.90;;;;;;5051415;28;20551;-67
2021/06/19 09:23:04;;;;;;;8.67;7.77;;;29.70;99.90;;;;;;5051210;28;20463;-71
2021/06/19 09:25:31;;;;;;;11.43;8.33;;;29.80;99.90;;;;;;5051432;28;20458;-68
2021/06/19 09:27:58;;;;;;;11.97;8.63;;;29.90;99.90;;;;;;5050214;28;20447;-68
2021/06/19 09:30:25;;;;;;;14.53;8.13;;;30.00;99.90;;;;;;5050323;28;20539;-70
2021/06/19 09:32:55;;;;;;;11.10;8.07;;;29.80;99.90;;;;;;5050919;28;20468;-68
2021/06/19 09:35:25;;;;;;;9.57;8.60;;;29.70;99.90;;;;;;5050693;28;20447;-68
2021/06/19 09:37:54;;;;;;;10.77;8.40;;;30.00;99.90;;;;;;5050124;28;20476;-69
2021/06/19 09:40:25;;;;;;;9.00;8.13;;;30.20;99.90;;;;;;5049476;28;20448;-68
2021/06/19 09:42:54;;;;;;;13.53;8.20;;;30.50;99.90;;;;;;5050354;28;20578;-68
2021/06/19 09:45:22;;;;;;;9.70;7.93;;;30.70;99.90;;;;;;5050229;28;20953;-69
2021/06/19 09:47:49;;;;;;;11.20;7.53;;;30.90;99.90;;;;;;5050163;28;20502;-69
2021/06/19 09:50:19;;;;;;;13.53;8.17;;;31.10;99.50;;;;;;5049237;28;20447;-68
2021/06/19 09:52:46;;;;;;;12.03;8.27;;;30.90;99.30;;;;;;5050733;28;20470;-68
2021/06/19 09:55:14;;;;;;;10.93;9.20;;;31.00;99.20;;;;;;5050330;28;20539;-67
2021/06/19 09:57:45;;;;;;;10.97;9.07;;;30.80;99.70;;;;;;5049779;28;20484;-68
2021/06/19 10:00:14;;;;;;;14.63;8.97;;;30.90;99.30;;;;;;5049869;28;20440;-69
2021/06/19 10:02:42;;;;;;;19.10;8.90;;;31.20;98.20;;;;;;5050038;28;20503;-68
2021/06/19 10:05:11;;;;;;;9.90;7.70;;;31.30;97.70;;;;;;5050021;28;20487;-68
2021/06/19 10:07:39;;;;;;;7.93;7.13;;;32.00;96.80;;;;;;5049769;28;20531;-69
2021/06/19 10:10:08;;;;;;;9.63;7.20;;;32.50;97.20;;;;;;5046637;28;20576;-70
2021/06/19 10:12:37;;;;;;;11.20;7.63;;;33.20;95.20;;;;;;5047517;28;20519;-71
2021/06/19 10:15:08;;;;;;;8.47;7.57;;;33.70;94.40;;;;;;5069817;28;20451;-70
2021/06/19 10:17:37;;;;;;;10.97;7.80;;;34.30;92.30;;;;;;5069337;28;20505;-70
2021/06/19 10:20:06;;;;;;;11.73;7.20;;;34.30;91.50;;;;;;5068653;28;20534;-69
2021/06/19 10:22:34;;;;;;;10.57;7.10;;;34.50;92.30;;;;;;5069842;28;20553;-68
2021/06/19 10:25:05;;;;;;;9.40;7.63;;;34.60;91.30;;;;;;5069453;28;20454;-69
2021/06/19 10:27:32;;;;;;;11.30;6.93;;;34.50;92.40;;;;;;5068938;28;20949;-70
2021/06/19 10:30:01;;;;;;;14.80;7.90;;;35.00;90.90;;;;;;5068409;28;20895;-70
2021/06/19 10:32:43;;;;;;;13.00;7.43;;;35.50;88.40;;;;;;5069352;28;20455;-69
2021/06/19 10:35:12;;;;;;;10.60;6.93;;;35.70;86.60;;;;;;5068793;28;20442;-71
2021/06/19 10:37:40;;;;;;;9.83;6.80;;;35.70;85.00;;;;;;5067214;28;20849;-69
2021/06/19 10:40:22;;;;;;;11.23;6.50;;;35.90;87.40;;;;;;5068349;28;20439;-69
2021/06/19 10:42:51;;;;;;;12.43;7.07;;;36.40;86.40;;;;;;5069191;28;20483;-71
2021/06/19 10:45:22;;;;;;;13.90;6.90;;;36.40;82.80;;;;;;5068631;28;20475;-70
2021/06/19 10:48:08;;;;;;;13.97;6.07;;;36.80;80.10;;;;;;5066064;28;20529;-70
2021/06/19 10:50:36;;;;;;;9.07;6.70;;;37.10;80.00;;;;;;5069035;28;20442;-70
2021/06/19 10:53:06;;;;;;;14.17;7.60;;;37.10;82.90;;;;;;5069330;28;21000;-71
2021/06/19 10:55:34;;;;;;;10.73;6.40;;;37.10;78.90;;;;;;5070307;28;20488;-71
2021/06/19 10:58:05;;;;;;;8.87;7.23;;;37.40;75.70;;;;;;5046895;28;20482;-66
2021/06/19 11:00:45;;;;;;;10.20;7.23;;;37.20;80.60;;;;;;5058637;28;20496;-68
2021/06/19 11:03:16;;;;;;;9.53;7.27;;;37.20;75.10;;;;;;5071600;28;20548;-65
2021/06/19 11:05:59;;;;;;;12.53;7.00;;;36.70;74.20;;;;;;5087585;28;20426;-68
2021/06/19 11:08:27;;;;;;;10.03;7.47;;;37.00;80.30;;;;;;5087690;28;20477;-70
2021/06/19 11:10:59;;;;;;;12.20;7.10;;;37.10;76.60;;;;;;5087009;28;20442;-68
2021/06/19 11:13:45;;;;;;;8.80;6.90;;;37.00;73.60;;;;;;5087703;28;21022;-69
2021/06/19 11:16:44;;;;;;;9.83;6.80;;;36.80;75.30;;;;;;5087398;28;21188;-72
2021/06/19 11:19:31;;;;;;;11.40;7.80;;;36.80;76.00;;;;;;5001796;28;21069;-68
2021/06/19 11:22:40;;;;;;;8.63;7.60;;;36.60;75.70;;;;;;5079400;28;20515;-69
2021/06/19 11:25:34;;;;;;;11.00;8.03;;;36.30;79.90;;;;;;5087478;28;20533;-69
2021/06/19 11:28:02;;;;;;;8.10;7.30;;;36.90;76.30;;;;;;5070993;28;20456;-70
2021/06/19 11:30:51;;;;;;;9.13;6.40;;;37.40;74.90;;;;;;5086290;28;20537;-68
2021/06/19 11:33:47;;;;;;;10.83;7.13;;;37.60;74.50;;;;;;5086975;28;20462;-68
2021/06/19 11:36:35;;;;;;;10.33;6.47;;;38.30;72.60;;;;;;5068409;28;20440;-69
2021/06/19 11:39:08;;;;;;;10.00;6.70;;;39.00;68.30;;;;;;5046281;28;20480;-70
2021/06/19 11:41:38;;;;;;;10.70;6.20;;;38.70;69.40;;;;;;5048667;28;20922;-69
2021/06/19 11:44:14;;;;;;;10.93;6.17;;;38.70;67.60;;;;;;5055872;28;20872;-68
2021/06/19 11:46:51;;;;;;;9.67;6.00;;;38.70;64.50;;;;;;5070230;28;20951;-70
2021/06/19 11:49:23;;;;;;;8.00;5.40;;;38.70;67.20;;;;;;5069413;28;20955;-70
2021/06/19 11:51:52;;;;;;;8.40;5.60;;;38.90;63.30;;;;;;5069395;28;20511;-68
2021/06/19 11:54:19;;;;;;;8.10;5.63;;;38.10;61.40;;;;;;5070978;28;20947;-66
2021/06/19 11:56:46;;;;;;;7.20;5.73;;;38.10;59.80;;;;;;5070144;28;20482;-68
2021/06/19 11:59:14;;;;;;;8.53;5.30;;;38.00;60.70;;;;;;5069166;28;21226;-69
2021/06/19 12:01:42;;;;;;;10.90;4.70;;;38.30;64.70;;;;;;5070172;28;20451;-69
2021/06/19 12:04:12;;;;;;;7.10;4.47;;;38.80;61.60;;;;;;5069966;28;21200;-70
2021/06/19 12:06:41;;;;;;;12.70;5.17;;;39.50;59.80;;;;;;5069794;28;20489;-68
2021/06/19 12:09:11;;;;;;;10.63;5.20;;;40.10;57.30;;;;;;5069602;28;21026;-68
2021/06/19 12:11:40;;;;;;;10.10;5.43;;;40.50;53.20;;;;;;5069921;28;20447;-69
2021/06/19 12:14:21;;;;;;;7.33;4.97;;;41.00;55.00;;;;;;5070526;28;20518;-67
2021/06/19 12:16:51;;;;;;;7.43;5.00;;;41.20;52.30;;;;;;5069140;28;20447;-68
2021/06/19 12:19:19;;;;;;;9.50;5.23;;;40.90;56.00;;;;;;5070194;28;20509;-68
2021/06/19 12:21:47;;;;;;;7.77;4.50;;;40.40;55.20;;;;;;5070278;28;20538;-68
2021/06/19 12:24:26;;;;;;;8.80;4.67;;;40.30;56.60;;;;;;5069277;28;20508;-66
2021/06/19 12:27:06;;;;;;;7.27;4.90;;;40.10;54.00;;;;;;5069897;28;20940;-67
2021/06/19 12:29:35;;;;;;;7.43;4.80;;;40.30;52.00;;;;;;5064181;28;20443;-67
2021/06/19 12:32:03;;;;;;;7.77;4.30;;;40.20;54.90;;;;;;5051066;28;20960;-67
2021/06/19 12:34:31;;;;;;;6.63;4.50;;;40.60;54.80;;;;;;5050904;28;20468;-67
2021/06/19 12:36:58;;;;;;;12.17;5.30;;;41.00;54.30;;;;;;5050226;28;20452;-68
2021/06/19 12:39:27;;;;;;;7.03;4.17;;;41.30;51.40;;;;;;5050023;28;20479;-67
2021/06/19 12:41:54;;;;;;;8.43;4.80;;;41.80;47.70;;;;;;5050549;28;20456;-66
2021/06/19 12:44:20;;;;;;;9.97;5.37;;;41.80;49.20;;;;;;5051111;28;20482;-67
2021/06/19 12:46:47;;;;;;;12.00;4.77;;;41.30;45.60;;;;;;5050062;28;20837;-68